Flight Track Log - Related Links

Times and Time Zones

All times are in EST time to prevent confusion due to time zone crossing. See the UAL625 flight status page for this flight to view local times or setup timezone preferences in your user account.

Time Position Orientation Groundspeed Altitude Reporting Facility
EST Latitude Longitude Course Direction KTS MPH feet Rate Location/Type
Sun 04:32:22 PM 37.6667 -122.3667 169° South 161 185 2,000  Level Northern Cal TRACON
Sun 04:33:22 PM 37.7000 -122.4000 322° Northwest 219 252 3,000 1,540 Climbing Northern Cal TRACON
Sun 04:34:15 PM 37.6925 -122.4667 262° West 232 267 4,900 3,183 Climbing Oakland Center
Sun 04:35:17 PM 37.6153 -122.5425 218° Southwest 298 343 9,100 3,000 Climbing Oakland Center
Sun 04:36:19 PM 37.5236 -122.5544 186° South 342 394 11,100 2,081 Climbing Oakland Center
Sun 04:37:00 PM 37.1904 -121.8530 169° South  Level Estimated
Sun 04:37:21 PM 37.4133 -122.5594 182° South 391 450 13,400  Level Oakland Center
Sun 04:38:23 PM 37.2975 -122.5583 180° South 417 480 16,400 2,419 Climbing Oakland Center
Sun 04:39:25 PM 37.1789 -122.5647 182° South 425 489 18,400 1,984 Climbing Oakland Center
Sun 04:40:27 PM 37.0564 -122.5681 181° South 438 504 20,500 2,129 Climbing Oakland Center
Sun 04:41:29 PM 36.9058 -122.5561 176° South 465 535 22,800 2,032 Climbing Oakland Center
Sun 04:42:31 PM 36.7778 -122.5233 168° South 470 541 24,700 1,742 Climbing Oakland Center
Sun 04:43:33 PM 36.6497 -122.4903 168° South 471 542 26,400 1,742 Climbing Oakland Center
Sun 04:44:35 PM 36.5217 -122.4572 168° South 470 541 28,300 1,210 Climbing Oakland Center
Sun 04:45:37 PM 36.4036 -122.3939 157° South 467 537 28,900 290 Climbing Oakland Center
Sun 04:46:39 PM 36.3167 -122.2794 133° Southeast 458 527 28,900  Level Oakland Center
Sun 04:47:40 PM 36.2178 -122.1350 130° Southeast 459 528 28,900  Level Oakland Center
Sun 04:48:42 PM 36.1356 -122.0150 130° Southeast 459 528 28,900  Level Oakland Center
Sun 04:49:44 PM 36.0519 -121.8947 131° Southeast 462 532 28,900  Level Oakland Center
Sun 04:50:46 PM 35.9708 -121.7797 131° Southeast 462 532 28,900  Level Oakland Center
Sun 04:51:48 PM 35.8881 -121.6617 131° Southeast 459 528 28,900  Level Oakland Center
Sun 04:52:50 PM 35.7894 -121.5189 130° Southeast 457 526 28,900  Level Oakland Center
Sun 04:53:52 PM 35.7067 -121.4014 131° Southeast 456 525 28,900  Level Oakland Center
Sun 04:54:53 PM 35.6250 -121.2856 131° Southeast 453 521 28,900  Level Oakland Center
Sun 04:55:55 PM 35.5425 -121.1692 131° Southeast 455 524 28,900  Level Oakland Center
Sun 04:56:42 PM 35.4717 -121.0853 136° Southeast 453 521 28,900  Level Los Angeles Center
Sun 04:57:44 PM 35.3678 -120.9969 145° Southeast 455 524 28,900  Level Los Angeles Center
Sun 04:58:46 PM 35.2619 -120.9086 146° Southeast 459 528 28,900 48 Level Los Angeles Center
Sun 04:59:48 PM 35.1344 -120.8011 145° Southeast 462 532 29,000  Climbing Los Angeles Center
Sun 05:00:50 PM 35.0283 -120.7119 145° Southeast 462 532 28,900 -240 Descending Los Angeles Center
Sun 05:01:53 PM 34.9225 -120.6236 146° Southeast 460 529 28,500 -624 Descending Los Angeles Center
Sun 05:02:55 PM 34.8200 -120.5386 146° Southeast 461 531 27,600 -1,016 Descending Los Angeles Center
Sun 05:03:57 PM 34.6928 -120.4336 146° Southeast 463 533 26,400 -1,016 Descending Los Angeles Center
Sun 05:04:59 PM 34.5983 -120.3564 146° Southeast 460 529 25,500 -968 Descending Los Angeles Center
Sun 05:06:01 PM 34.4844 -120.2636 146° Southeast 450 518 24,400 -774 Descending Los Angeles Center
Sun 05:07:03 PM 34.3803 -120.1803 147° Southeast 449 517 23,900 -194 Descending Los Angeles Center
Sun 05:08:05 PM 34.2631 -120.0822 145° Southeast 448 516 24,000 -145 Climbing Los Angeles Center
Sun 05:09:07 PM 34.1958 -119.9592 123° Southeast 437 503 23,600 -484 Descending Los Angeles Center
Sun 05:10:09 PM 34.1333 -119.8425 123° Southeast 421 484 23,000 -286 Descending Los Angeles Center
Sun 05:11:13 PM 34.0722 -119.7267 122° Southeast 412 474 23,000  Level Los Angeles Center
Sun 05:12:13 PM 34.0111 -119.6133 123° Southeast 407 468 23,000 -293 Level Los Angeles Center
Sun 05:13:16 PM 33.9486 -119.4992 123° Southeast 409 471 22,400 -864 Descending Los Angeles Center
Sun 05:14:18 PM 33.8772 -119.3619 122° Southeast 405 466 21,200 -1,258 Descending Los Angeles Center
Sun 05:15:20 PM 33.8181 -119.2531 123° Southeast 391 450 19,800 -1,694 Descending Los Angeles Center
Sun 05:16:22 PM 33.7617 -119.1481 123° Southeast 375 432 17,700 -2,226 Descending Los Angeles Center
Sun 05:17:24 PM 33.7058 -119.0442 123° Southeast 372 428 15,200 -2,226 Descending Los Angeles Center
Sun 05:18:26 PM 33.6519 -118.9447 123° Southeast 358 412 13,100 -2,032 Descending Los Angeles Center
Sun 05:19:28 PM 33.5881 -118.8306 124° Southeast 346 398 11,000 -968 Descending Los Angeles Center
Sun 05:20:30 PM 33.5375 -118.7353 122° Southeast 341 392 11,100 -435 Climbing Los Angeles Center
Sun 05:21:32 PM 33.5056 -118.6500 114° Southeast 305 351 10,100 -1,306 Descending Los Angeles Center
Sun 05:22:34 PM 33.4772 -118.5667 112° Southeast 283 326 8,400 -1,548 Descending Los Angeles Center
Sun 05:23:36 PM 33.4492 -118.4833 112° Southeast 275 316 6,900 -1,488 Descending Los Angeles Center
Sun 05:24:39 PM 33.4169 -118.3889 112° Southeast 263 303 5,300 -864 Descending Los Angeles Center
Sun 05:25:41 PM 33.3903 -118.3086 112° Southeast 261 300 5,100 -97 Descending Los Angeles Center
Sun 05:26:43 PM 33.3603 -118.2272 114° Southeast 268 308 5,100 -48 Level Los Angeles Center
Sun 05:27:45 PM 33.3556 -118.1464 94° East 262 302 5,000 -629 Descending Los Angeles Center
Sun 05:28:47 PM 33.3800 -118.0789 67° East 233 268 3,800 -1,500 Descending Los Angeles Center
Sun 05:29:49 PM 33.4386 -118.0303 35° Northeast 218 251 1,900 -1,113 Descending Los Angeles Center
Sun 05:30:51 PM 33.4897 -117.9956 30° Northeast 216 249 1,500 -145 Descending Los Angeles Center
Sun 05:31:53 PM 33.5314 -117.9622 34° Northeast 200 230 1,600 48 Climbing Los Angeles Center
Sun 05:32:55 PM 33.5742 -117.9333 29° Northeast 187 215 1,600 -145 Level Los Angeles Center
Sun 05:33:57 PM 33.6114 -117.9081 29° Northeast 166 191 1,300 -452 Descending Los Angeles Center
Sun 05:34:28 PM 33.6333 -117.9000 17° North 127 146 900 -725 Descending Southern California TRACON
Sun 05:35:28 PM 33.6667 -117.8833 23° Northeast 140 161 200 -700 Descending Southern California TRACON

Login

Don't have an account? Register now (free) for customized features, flight alerts, and more!